sensor_id;sensor_type;location;lat;lon;timestamp;temperature;humidity
28552;DHT22;15752;49.560;8.708;2023-05-10T00:00:32;18.80;99.90
28552;DHT22;15752;49.560;8.708;2023-05-10T00:03:00;18.80;99.90
28552;DHT22;15752;49.560;8.708;2023-05-10T00:05:31;18.80;99.90
28552;DHT22;15752;49.560;8.708;2023-05-10T00:07:59;18.80;99.90
28552;DHT22;15752;49.560;8.708;2023-05-10T00:10:28;18.80;99.90
28552;DHT22;15752;49.560;8.708;2023-05-10T00:12:57;18.80;99.90
28552;DHT22;15752;49.560;8.708;2023-05-10T00:15:26;18.70;99.90
28552;DHT22;15752;49.560;8.708;2023-05-10T00:17:54;18.70;99.90
28552;DHT22;15752;49.560;8.708;2023-05-10T00:20:23;18.70;99.90
28552;DHT22;15752;49.560;8.708;2023-05-10T00:22:51;18.70;99.90
28552;DHT22;15752;49.560;8.708;2023-05-10T00:25:19;18.70;99.90
28552;DHT22;15752;49.560;8.708;2023-05-10T00:27:48;18.70;99.90
28552;DHT22;15752;49.560;8.708;2023-05-10T00:30:18;18.70;99.90
28552;DHT22;15752;49.560;8.708;2023-05-10T00:32:47;18.70;99.90
28552;DHT22;15752;49.560;8.708;2023-05-10T00:35:16;18.70;99.90
28552;DHT22;15752;49.560;8.708;2023-05-10T00:37:45;18.60;99.90
28552;DHT22;15752;49.560;8.708;2023-05-10T00:40:14;18.60;99.90
28552;DHT22;15752;49.560;8.708;2023-05-10T00:42:48;18.60;99.90
28552;DHT22;15752;49.560;8.708;2023-05-10T00:45:18;18.60;99.90
28552;DHT22;15752;49.560;8.708;2023-05-10T00:47:46;18.60;99.90
28552;DHT22;15752;49.560;8.708;2023-05-10T00:50:15;18.50;99.90
28552;DHT22;15752;49.560;8.708;2023-05-10T00:52:44;18.50;99.90
28552;DHT22;15752;49.560;8.708;2023-05-10T00:55:12;18.50;99.90
28552;DHT22;15752;49.560;8.708;2023-05-10T00:57:41;18.50;99.90
28552;DHT22;15752;49.560;8.708;2023-05-10T01:00:11;18.50;99.90
28552;DHT22;15752;49.560;8.708;2023-05-10T01:02:46;18.50;99.90
28552;DHT22;15752;49.560;8.708;2023-05-10T01:05:16;18.50;99.90
28552;DHT22;15752;49.560;8.708;2023-05-10T01:07:45;18.40;99.90
28552;DHT22;15752;49.560;8.708;2023-05-10T01:10:13;18.40;99.90
28552;DHT22;15752;49.560;8.708;2023-05-10T01:12:45;18.40;99.90
28552;DHT22;15752;49.560;8.708;2023-05-10T01:15:16;18.40;99.90
28552;DHT22;15752;49.560;8.708;2023-05-10T01:17:47;18.40;99.90
28552;DHT22;15752;49.560;8.708;2023-05-10T01:20:17;18.30;99.90
28552;DHT22;15752;49.560;8.708;2023-05-10T01:23:12;18.30;99.90
28552;DHT22;15752;49.560;8.708;2023-05-10T01:26:14;18.30;99.90
28552;DHT22;15752;49.560;8.708;2023-05-10T01:29:11;18.30;99.90
28552;DHT22;15752;49.560;8.708;2023-05-10T01:32:01;18.30;99.90
28552;DHT22;15752;49.560;8.708;2023-05-10T01:34:47;18.30;99.90
28552;DHT22;15752;49.560;8.708;2023-05-10T01:37:27;18.30;99.90
28552;DHT22;15752;49.560;8.708;2023-05-10T01:40:05;18.30;99.90
28552;DHT22;15752;49.560;8.708;2023-05-10T01:42:42;18.30;99.90
28552;DHT22;15752;49.560;8.708;2023-05-10T01:45:19;18.30;99.90
28552;DHT22;15752;49.560;8.708;2023-05-10T01:47:58;18.30;99.90
28552;DHT22;15752;49.560;8.708;2023-05-10T01:50:33;18.20;99.90
28552;DHT22;15752;49.560;8.708;2023-05-10T01:53:05;18.30;99.90
28552;DHT22;15752;49.560;8.708;2023-05-10T01:55:40;18.20;99.90
28552;DHT22;15752;49.560;8.708;2023-05-10T01:58:14;18.20;99.90
28552;DHT22;15752;49.560;8.708;2023-05-10T02:00:46;18.20;99.90
28552;DHT22;15752;49.560;8.708;2023-05-10T02:03:18;18.20;99.90
28552;DHT22;15752;49.560;8.708;2023-05-10T02:05:49;18.20;99.90
28552;DHT22;15752;49.560;8.708;2023-05-10T02:08:22;18.20;99.90
28552;DHT22;15752;49.560;8.708;2023-05-10T02:10:52;18.20;99.90
28552;DHT22;15752;49.560;8.708;2023-05-10T02:13:23;18.20;99.90
28552;DHT22;15752;49.560;8.708;2023-05-10T02:15:53;18.20;99.90
28552;DHT22;15752;49.560;8.708;2023-05-10T02:18:24;18.20;99.90
28552;DHT22;15752;49.560;8.708;2023-05-10T02:20:55;18.20;99.90
28552;DHT22;15752;49.560;8.708;2023-05-10T02:23:25;18.10;99.90
28552;DHT22;15752;49.560;8.708;2023-05-10T02:25:55;18.10;99.90
28552;DHT22;15752;49.560;8.708;2023-05-10T02:28:26;18.10;99.90
28552;DHT22;15752;49.560;8.708;2023-05-10T02:30:55;18.10;99.90
28552;DHT22;15752;49.560;8.708;2023-05-10T02:33:26;18.10;99.90
28552;DHT22;15752;49.560;8.708;2023-05-10T02:35:55;18.10;99.90
28552;DHT22;15752;49.560;8.708;2023-05-10T02:38:24;18.10;99.90
28552;DHT22;15752;49.560;8.708;2023-05-10T02:40:54;18.10;99.90
28552;DHT22;15752;49.560;8.708;2023-05-10T02:43:24;18.10;99.90
28552;DHT22;15752;49.560;8.708;2023-05-10T02:45:53;18.10;99.90
28552;DHT22;15752;49.560;8.708;2023-05-10T02:48:22;18.10;99.90
28552;DHT22;15752;49.560;8.708;2023-05-10T02:50:53;18.00;99.90
28552;DHT22;15752;49.560;8.708;2023-05-10T02:53:28;18.00;99.90
28552;DHT22;15752;49.560;8.708;2023-05-10T02:56:00;18.00;99.90
28552;DHT22;15752;49.560;8.708;2023-05-10T02:58:33;18.00;99.90
28552;DHT22;15752;49.560;8.708;2023-05-10T03:01:02;18.00;99.90
28552;DHT22;15752;49.560;8.708;2023-05-10T03:03:31;18.00;99.90
28552;DHT22;15752;49.560;8.708;2023-05-10T03:06:01;18.00;99.90
28552;DHT22;15752;49.560;8.708;2023-05-10T03:08:29;18.00;99.90
28552;DHT22;15752;49.560;8.708;2023-05-10T03:11:09;18.00;99.90
28552;DHT22;15752;49.560;8.708;2023-05-10T03:13:54;18.00;99.90
28552;DHT22;15752;49.560;8.708;2023-05-10T03:16:29;18.00;99.90
28552;DHT22;15752;49.560;8.708;2023-05-10T03:19:09;18.00;99.90
28552;DHT22;15752;49.560;8.708;2023-05-10T03:21:47;18.00;99.90
28552;DHT22;15752;49.560;8.708;2023-05-10T03:24:21;18.00;99.90
28552;DHT22;15752;49.560;8.708;2023-05-10T03:26:52;18.00;99.90
28552;DHT22;15752;49.560;8.708;2023-05-10T03:29:22;17.90;99.90
28552;DHT22;15752;49.560;8.708;2023-05-10T03:31:52;17.90;99.90
28552;DHT22;15752;49.560;8.708;2023-05-10T03:34:23;17.90;99.90
28552;DHT22;15752;49.560;8.708;2023-05-10T03:36:53;17.90;99.90
28552;DHT22;15752;49.560;8.708;2023-05-10T03:39:24;17.90;99.90
28552;DHT22;15752;49.560;8.708;2023-05-10T03:41:57;17.90;99.90
28552;DHT22;15752;49.560;8.708;2023-05-10T03:44:25;17.90;99.90
28552;DHT22;15752;49.560;8.708;2023-05-10T03:46:54;17.90;99.90
28552;DHT22;15752;49.560;8.708;2023-05-10T03:49:24;17.90;99.90
28552;DHT22;15752;49.560;8.708;2023-05-10T03:51:54;17.90;99.90
28552;DHT22;15752;49.560;8.708;2023-05-10T03:54:22;17.90;99.90
28552;DHT22;15752;49.560;8.708;2023-05-10T03:56:50;17.80;99.90
28552;DHT22;15752;49.560;8.708;2023-05-10T03:59:20;17.80;99.90
28552;DHT22;15752;49.560;8.708;2023-05-10T04:01:51;17.80;99.90
28552;DHT22;15752;49.560;8.708;2023-05-10T04:04:19;17.80;99.90
28552;DHT22;15752;49.560;8.708;2023-05-10T04:06:49;17.80;99.90
28552;DHT22;15752;49.560;8.708;2023-05-10T04:09:20;17.80;99.90
28552;DHT22;15752;49.560;8.708;2023-05-10T04:11:48;17.80;99.90
28552;DHT22;15752;49.560;8.708;2023-05-10T04:14:16;17.80;99.90
28552;DHT22;15752;49.560;8.708;2023-05-10T04:16:45;17.80;99.90
28552;DHT22;15752;49.560;8.708;2023-05-10T04:19:13;17.80;99.90
28552;DHT22;15752;49.560;8.708;2023-05-10T04:21:41;17.80;99.90
28552;DHT22;15752;49.560;8.708;2023-05-10T04:24:10;17.80;99.90
28552;DHT22;15752;49.560;8.708;2023-05-10T04:26:40;17.80;99.90
28552;DHT22;15752;49.560;8.708;2023-05-10T04:29:09;17.80;99.90
28552;DHT22;15752;49.560;8.708;2023-05-10T04:31:37;17.80;99.90
28552;DHT22;15752;49.560;8.708;2023-05-10T04:34:05;17.80;99.90
28552;DHT22;15752;49.560;8.708;2023-05-10T04:36:34;17.80;99.90
28552;DHT22;15752;49.560;8.708;2023-05-10T04:39:03;17.80;99.90
28552;DHT22;15752;49.560;8.708;2023-05-10T04:41:32;17.80;99.90
28552;DHT22;15752;49.560;8.708;2023-05-10T04:44:02;17.80;99.90
28552;DHT22;15752;49.560;8.708;2023-05-10T04:46:30;17.70;99.90
28552;DHT22;15752;49.560;8.708;2023-05-10T04:48:59;17.70;99.90
28552;DHT22;15752;49.560;8.708;2023-05-10T04:51:27;17.70;99.90
28552;DHT22;15752;49.560;8.708;2023-05-10T04:53:55;17.70;99.90
28552;DHT22;15752;49.560;8.708;2023-05-10T04:56:32;17.80;99.90
28552;DHT22;15752;49.560;8.708;2023-05-10T04:59:02;17.80;99.90
28552;DHT22;15752;49.560;8.708;2023-05-10T05:01:30;17.70;99.90
28552;DHT22;15752;49.560;8.708;2023-05-10T05:03:59;17.80;99.90
28552;DHT22;15752;49.560;8.708;2023-05-10T05:06:28;17.70;99.90
28552;DHT22;15752;49.560;8.708;2023-05-10T05:08:56;17.70;99.90
28552;DHT22;15752;49.560;8.708;2023-05-10T05:11:25;17.80;99.90
28552;DHT22;15752;49.560;8.708;2023-05-10T05:13:53;17.70;99.90
28552;DHT22;15752;49.560;8.708;2023-05-10T05:16:23;17.70;99.90
28552;DHT22;15752;49.560;8.708;2023-05-10T05:18:52;17.80;99.90
28552;DHT22;15752;49.560;8.708;2023-05-10T05:21:20;17.80;99.90
28552;DHT22;15752;49.560;8.708;2023-05-10T05:23:49;17.70;99.90
28552;DHT22;15752;49.560;8.708;2023-05-10T05:26:17;17.70;99.90
28552;DHT22;15752;49.560;8.708;2023-05-10T05:28:45;17.80;99.90
28552;DHT22;15752;49.560;8.708;2023-05-10T05:31:15;17.70;99.90
28552;DHT22;15752;49.560;8.708;2023-05-10T05:33:45;17.70;99.90
28552;DHT22;15752;49.560;8.708;2023-05-10T05:36:14;17.70;99.90
28552;DHT22;15752;49.560;8.708;2023-05-10T05:38:42;17.70;99.90
28552;DHT22;15752;49.560;8.708;2023-05-10T05:41:11;17.70;99.90
28552;DHT22;15752;49.560;8.708;2023-05-10T05:43:39;17.80;99.90
28552;DHT22;15752;49.560;8.708;2023-05-10T05:46:07;17.80;99.90
28552;DHT22;15752;49.560;8.708;2023-05-10T05:48:36;17.70;99.90
28552;DHT22;15752;49.560;8.708;2023-05-10T05:51:06;17.70;99.90
28552;DHT22;15752;49.560;8.708;2023-05-10T05:53:34;17.70;99.90
28552;DHT22;15752;49.560;8.708;2023-05-10T05:56:03;17.80;99.90
28552;DHT22;15752;49.560;8.708;2023-05-10T05:58:32;17.80;99.90
28552;DHT22;15752;49.560;8.708;2023-05-10T06:01:00;17.80;99.90
28552;DHT22;15752;49.560;8.708;2023-05-10T06:03:29;17.80;99.90
28552;DHT22;15752;49.560;8.708;2023-05-10T06:05:57;17.80;99.90
28552;DHT22;15752;49.560;8.708;2023-05-10T06:08:27;17.80;99.90
28552;DHT22;15752;49.560;8.708;2023-05-10T06:10:56;17.80;99.90
28552;DHT22;15752;49.560;8.708;2023-05-10T06:13:24;17.80;99.90
28552;DHT22;15752;49.560;8.708;2023-05-10T06:15:55;17.80;99.90
28552;DHT22;15752;49.560;8.708;2023-05-10T06:18:24;17.80;99.90
28552;DHT22;15752;49.560;8.708;2023-05-10T06:20:52;17.80;99.90
28552;DHT22;15752;49.560;8.708;2023-05-10T06:23:20;17.80;99.90
28552;DHT22;15752;49.560;8.708;2023-05-10T06:25:51;17.80;99.90
28552;DHT22;15752;49.560;8.708;2023-05-10T06:28:19;17.80;99.90
28552;DHT22;15752;49.560;8.708;2023-05-10T06:30:48;17.80;99.90
28552;DHT22;15752;49.560;8.708;2023-05-10T06:33:16;17.70;99.90
28552;DHT22;15752;49.560;8.708;2023-05-10T06:35:44;17.80;99.90
28552;DHT22;15752;49.560;8.708;2023-05-10T06:38:13;17.80;99.90
28552;DHT22;15752;49.560;8.708;2023-05-10T06:40:42;17.80;99.90
28552;DHT22;15752;49.560;8.708;2023-05-10T06:43:11;17.80;99.90
28552;DHT22;15752;49.560;8.708;2023-05-10T06:45:40;17.80;99.90
28552;DHT22;15752;49.560;8.708;2023-05-10T06:48:08;17.80;99.90
28552;DHT22;15752;49.560;8.708;2023-05-10T06:50:37;17.80;99.90
28552;DHT22;15752;49.560;8.708;2023-05-10T06:53:06;17.80;99.90
28552;DHT22;15752;49.560;8.708;2023-05-10T06:55:34;17.80;99.90
28552;DHT22;15752;49.560;8.708;2023-05-10T06:58:02;17.80;99.90
28552;DHT22;15752;49.560;8.708;2023-05-10T07:00:32;17.90;99.90
28552;DHT22;15752;49.560;8.708;2023-05-10T07:03:01;17.90;99.90
28552;DHT22;15752;49.560;8.708;2023-05-10T07:05:29;17.90;99.90
28552;DHT22;15752;49.560;8.708;2023-05-10T07:07:58;17.90;99.90
28552;DHT22;15752;49.560;8.708;2023-05-10T07:10:26;17.90;99.90
28552;DHT22;15752;49.560;8.708;2023-05-10T07:12:55;17.90;99.90
28552;DHT22;15752;49.560;8.708;2023-05-10T07:15:23;17.90;99.90
28552;DHT22;15752;49.560;8.708;2023-05-10T07:17:53;17.90;99.90
28552;DHT22;15752;49.560;8.708;2023-05-10T07:20:22;17.90;99.90
28552;DHT22;15752;49.560;8.708;2023-05-10T07:22:50;17.90;99.90
28552;DHT22;15752;49.560;8.708;2023-05-10T07:25:19;17.90;99.90
28552;DHT22;15752;49.560;8.708;2023-05-10T07:27:47;17.90;99.90
28552;DHT22;15752;49.560;8.708;2023-05-10T07:30:16;17.90;99.90
28552;DHT22;15752;49.560;8.708;2023-05-10T07:32:45;17.90;99.90
28552;DHT22;15752;49.560;8.708;2023-05-10T07:35:15;18.00;99.90
28552;DHT22;15752;49.560;8.708;2023-05-10T07:37:44;18.00;99.90
28552;DHT22;15752;49.560;8.708;2023-05-10T07:40:13;18.00;99.90
28552;DHT22;15752;49.560;8.708;2023-05-10T07:42:41;18.00;99.90
28552;DHT22;15752;49.560;8.708;2023-05-10T07:45:10;18.00;99.90
28552;DHT22;15752;49.560;8.708;2023-05-10T07:47:39;18.00;99.90
28552;DHT22;15752;49.560;8.708;2023-05-10T07:50:08;18.00;99.90
28552;DHT22;15752;49.560;8.708;2023-05-10T07:52:38;18.00;99.90
28552;DHT22;15752;49.560;8.708;2023-05-10T07:55:07;18.10;99.90
28552;DHT22;15752;49.560;8.708;2023-05-10T07:57:38;18.10;99.90
28552;DHT22;15752;49.560;8.708;2023-05-10T08:00:07;18.10;99.90
28552;DHT22;15752;49.560;8.708;2023-05-10T08:02:39;18.10;99.90
28552;DHT22;15752;49.560;8.708;2023-05-10T08:05:08;18.20;99.90
28552;DHT22;15752;49.560;8.708;2023-05-10T08:07:39;18.20;99.90
28552;DHT22;15752;49.560;8.708;2023-05-10T08:10:08;18.20;99.90
28552;DHT22;15752;49.560;8.708;2023-05-10T08:12:38;18.30;99.90
28552;DHT22;15752;49.560;8.708;2023-05-10T08:15:07;18.30;99.90
28552;DHT22;15752;49.560;8.708;2023-05-10T08:17:36;18.30;99.90
28552;DHT22;15752;49.560;8.708;2023-05-10T08:20:06;18.40;99.90
28552;DHT22;15752;49.560;8.708;2023-05-10T08:22:35;18.40;99.90
28552;DHT22;15752;49.560;8.708;2023-05-10T08:25:06;18.40;99.90
28552;DHT22;15752;49.560;8.708;2023-05-10T08:27:35;18.50;99.90
28552;DHT22;15752;49.560;8.708;2023-05-10T08:30:04;18.50;99.90
28552;DHT22;15752;49.560;8.708;2023-05-10T08:32:34;18.50;99.90
28552;DHT22;15752;49.560;8.708;2023-05-10T08:35:05;18.60;99.90
28552;DHT22;15752;49.560;8.708;2023-05-10T08:37:33;18.60;99.90
28552;DHT22;15752;49.560;8.708;2023-05-10T08:40:02;18.60;99.90
28552;DHT22;15752;49.560;8.708;2023-05-10T08:42:34;18.70;99.90
28552;DHT22;15752;49.560;8.708;2023-05-10T08:45:07;18.70;99.90
28552;DHT22;15752;49.560;8.708;2023-05-10T08:47:36;18.80;99.90
28552;DHT22;15752;49.560;8.708;2023-05-10T08:50:06;18.80;99.90
28552;DHT22;15752;49.560;8.708;2023-05-10T08:52:38;18.90;99.90
28552;DHT22;15752;49.560;8.708;2023-05-10T08:55:10;18.90;99.90
28552;DHT22;15752;49.560;8.708;2023-05-10T08:57:38;18.90;99.90
28552;DHT22;15752;49.560;8.708;2023-05-10T09:00:08;19.00;99.90
28552;DHT22;15752;49.560;8.708;2023-05-10T09:02:37;19.00;99.90
28552;DHT22;15752;49.560;8.708;2023-05-10T09:05:07;19.00;99.90
28552;DHT22;15752;49.560;8.708;2023-05-10T09:07:37;19.10;99.90
28552;DHT22;15752;49.560;8.708;2023-05-10T09:10:07;19.10;99.90
28552;DHT22;15752;49.560;8.708;2023-05-10T09:12:38;19.20;99.90
28552;DHT22;15752;49.560;8.708;2023-05-10T09:15:08;19.20;99.90
28552;DHT22;15752;49.560;8.708;2023-05-10T09:17:38;19.20;99.90
28552;DHT22;15752;49.560;8.708;2023-05-10T09:20:08;19.30;99.90
28552;DHT22;15752;49.560;8.708;2023-05-10T09:22:37;19.30;99.90
28552;DHT22;15752;49.560;8.708;2023-05-10T09:25:07;19.40;99.90
28552;DHT22;15752;49.560;8.708;2023-05-10T09:27:40;19.40;99.90
28552;DHT22;15752;49.560;8.708;2023-05-10T09:30:09;19.40;99.90
28552;DHT22;15752;49.560;8.708;2023-05-10T09:32:39;19.40;99.90
28552;DHT22;15752;49.560;8.708;2023-05-10T09:35:09;19.40;99.90
28552;DHT22;15752;49.560;8.708;2023-05-10T09:37:39;19.40;99.90
28552;DHT22;15752;49.560;8.708;2023-05-10T09:40:14;19.40;99.90
28552;DHT22;15752;49.560;8.708;2023-05-10T09:42:51;19.40;99.90
28552;DHT22;15752;49.560;8.708;2023-05-10T09:45:20;19.30;99.90
28552;DHT22;15752;49.560;8.708;2023-05-10T09:47:49;19.30;99.90
28552;DHT22;15752;49.560;8.708;2023-05-10T09:50:19;19.30;99.90
28552;DHT22;15752;49.560;8.708;2023-05-10T09:52:49;19.20;99.90
28552;DHT22;15752;49.560;8.708;2023-05-10T09:55:22;19.20;99.90
28552;DHT22;15752;49.560;8.708;2023-05-10T09:57:59;19.10;99.90
28552;DHT22;15752;49.560;8.708;2023-05-10T10:00:33;19.10;99.90
28552;DHT22;15752;49.560;8.708;2023-05-10T10:03:03;19.10;99.90
28552;DHT22;15752;49.560;8.708;2023-05-10T10:05:33;19.10;99.90
28552;DHT22;15752;49.560;8.708;2023-05-10T10:08:04;19.00;99.90
28552;DHT22;15752;49.560;8.708;2023-05-10T10:10:34;19.00;99.90
28552;DHT22;15752;49.560;8.708;2023-05-10T10:13:03;19.00;99.90
28552;DHT22;15752;49.560;8.708;2023-05-10T10:15:33;19.00;99.90
28552;DHT22;15752;49.560;8.708;2023-05-10T10:18:02;19.00;99.90
28552;DHT22;15752;49.560;8.708;2023-05-10T10:20:32;19.00;99.90
28552;DHT22;15752;49.560;8.708;2023-05-10T10:23:00;19.00;99.90
28552;DHT22;15752;49.560;8.708;2023-05-10T10:25:29;19.00;99.90
28552;DHT22;15752;49.560;8.708;2023-05-10T10:28:11;19.00;99.90
28552;DHT22;15752;49.560;8.708;2023-05-10T10:30:50;19.00;99.90
28552;DHT22;15752;49.560;8.708;2023-05-10T10:33:47;18.90;99.90
28552;DHT22;15752;49.560;8.708;2023-05-10T10:36:23;18.90;99.90
28552;DHT22;15752;49.560;8.708;2023-05-10T10:39:01;18.90;99.90
28552;DHT22;15752;49.560;8.708;2023-05-10T10:41:32;18.80;99.90
28552;DHT22;15752;49.560;8.708;2023-05-10T10:44:34;18.80;99.90
28552;DHT22;15752;49.560;8.708;2023-05-10T10:47:07;18.70;99.90
28552;DHT22;15752;49.560;8.708;2023-05-10T10:49:43;18.70;99.90
28552;DHT22;15752;49.560;8.708;2023-05-10T10:52:21;18.60;99.90
28552;DHT22;15752;49.560;8.708;2023-05-10T10:54:58;18.60;99.90
28552;DHT22;15752;49.560;8.708;2023-05-10T10:57:29;18.60;99.90
28552;DHT22;15752;49.560;8.708;2023-05-10T11:00:22;18.50;99.90
28552;DHT22;15752;49.560;8.708;2023-05-10T11:02:57;18.50;99.90
28552;DHT22;15752;49.560;8.708;2023-05-10T11:05:38;18.50;99.90
28552;DHT22;15752;49.560;8.708;2023-05-10T11:08:11;18.50;99.90
28552;DHT22;15752;49.560;8.708;2023-05-10T11:10:53;18.50;99.90
28552;DHT22;15752;49.560;8.708;2023-05-10T11:13:32;18.50;99.90
28552;DHT22;15752;49.560;8.708;2023-05-10T11:16:16;18.50;99.90
28552;DHT22;15752;49.560;8.708;2023-05-10T11:18:53;18.60;99.90
28552;DHT22;15752;49.560;8.708;2023-05-10T11:21:25;18.60;99.90
28552;DHT22;15752;49.560;8.708;2023-05-10T11:23:55;18.60;99.90
28552;DHT22;15752;49.560;8.708;2023-05-10T11:26:25;18.60;99.90
28552;DHT22;15752;49.560;8.708;2023-05-10T11:28:58;18.60;99.90
28552;DHT22;15752;49.560;8.708;2023-05-10T11:31:29;18.60;99.90
28552;DHT22;15752;49.560;8.708;2023-05-10T11:33:59;18.70;99.90
28552;DHT22;15752;49.560;8.708;2023-05-10T11:36:29;18.70;99.90
28552;DHT22;15752;49.560;8.708;2023-05-10T11:39:00;18.80;99.90
28552;DHT22;15752;49.560;8.708;2023-05-10T11:41:30;18.80;99.90
28552;DHT22;15752;49.560;8.708;2023-05-10T11:43:59;18.80;99.90
28552;DHT22;15752;49.560;8.708;2023-05-10T11:46:29;18.90;99.90
28552;DHT22;15752;49.560;8.708;2023-05-10T11:48:59;19.00;99.90
28552;DHT22;15752;49.560;8.708;2023-05-10T11:51:33;19.00;99.90
28552;DHT22;15752;49.560;8.708;2023-05-10T11:54:06;19.00;99.90
28552;DHT22;15752;49.560;8.708;2023-05-10T11:56:36;19.10;99.90
28552;DHT22;15752;49.560;8.708;2023-05-10T11:59:14;19.10;99.90
28552;DHT22;15752;49.560;8.708;2023-05-10T12:01:44;19.20;99.90
28552;DHT22;15752;49.560;8.708;2023-05-10T12:04:12;19.20;99.90
28552;DHT22;15752;49.560;8.708;2023-05-10T12:06:41;19.20;99.90
28552;DHT22;15752;49.560;8.708;2023-05-10T12:09:10;19.20;99.90
28552;DHT22;15752;49.560;8.708;2023-05-10T12:11:40;19.20;99.90
28552;DHT22;15752;49.560;8.708;2023-05-10T12:14:10;19.10;99.90
28552;DHT22;15752;49.560;8.708;2023-05-10T12:16:39;19.10;99.90
28552;DHT22;15752;49.560;8.708;2023-05-10T12:19:09;19.10;99.90
28552;DHT22;15752;49.560;8.708;2023-05-10T12:21:38;19.10;99.90
28552;DHT22;15752;49.560;8.708;2023-05-10T12:24:08;19.10;99.90
28552;DHT22;15752;49.560;8.708;2023-05-10T12:26:37;19.20;99.90
28552;DHT22;15752;49.560;8.708;2023-05-10T12:29:13;19.20;99.90
28552;DHT22;15752;49.560;8.708;2023-05-10T12:31:55;19.20;99.90
28552;DHT22;15752;49.560;8.708;2023-05-10T12:34:29;19.20;99.90
28552;DHT22;15752;49.560;8.708;2023-05-10T12:36:59;19.20;99.90
28552;DHT22;15752;49.560;8.708;2023-05-10T12:39:38;19.30;99.90
28552;DHT22;15752;49.560;8.708;2023-05-10T12:42:09;19.30;99.90
28552;DHT22;15752;49.560;8.708;2023-05-10T12:44:38;19.40;99.90
28552;DHT22;15752;49.560;8.708;2023-05-10T12:47:07;19.40;99.90
28552;DHT22;15752;49.560;8.708;2023-05-10T12:49:37;19.40;99.90
28552;DHT22;15752;49.560;8.708;2023-05-10T12:52:05;19.50;99.90
28552;DHT22;15752;49.560;8.708;2023-05-10T12:54:34;19.50;99.90
28552;DHT22;15752;49.560;8.708;2023-05-10T12:57:02;19.60;99.90
28552;DHT22;15752;49.560;8.708;2023-05-10T12:59:31;19.60;99.90
28552;DHT22;15752;49.560;8.708;2023-05-10T13:02:01;19.60;99.90
28552;DHT22;15752;49.560;8.708;2023-05-10T13:04:31;19.60;99.90
28552;DHT22;15752;49.560;8.708;2023-05-10T13:07:01;19.70;99.90
28552;DHT22;15752;49.560;8.708;2023-05-10T13:09:30;19.70;99.90
28552;DHT22;15752;49.560;8.708;2023-05-10T13:11:58;19.70;99.90
28552;DHT22;15752;49.560;8.708;2023-05-10T13:14:27;19.70;99.90
28552;DHT22;15752;49.560;8.708;2023-05-10T13:16:55;19.70;99.90
28552;DHT22;15752;49.560;8.708;2023-05-10T13:19:24;19.80;99.90
28552;DHT22;15752;49.560;8.708;2023-05-10T13:21:52;19.80;99.90
28552;DHT22;15752;49.560;8.708;2023-05-10T13:24:22;19.90;99.90
28552;DHT22;15752;49.560;8.708;2023-05-10T13:26:50;19.90;99.90
28552;DHT22;15752;49.560;8.708;2023-05-10T13:29:19;19.90;99.90
28552;DHT22;15752;49.560;8.708;2023-05-10T13:31:49;19.90;99.90
28552;DHT22;15752;49.560;8.708;2023-05-10T13:34:17;20.00;99.90
28552;DHT22;15752;49.560;8.708;2023-05-10T13:36:48;20.00;99.90
28552;DHT22;15752;49.560;8.708;2023-05-10T13:39:16;20.00;99.90
28552;DHT22;15752;49.560;8.708;2023-05-10T13:41:46;20.10;99.90
28552;DHT22;15752;49.560;8.708;2023-05-10T13:44:15;20.10;99.90
28552;DHT22;15752;49.560;8.708;2023-05-10T13:46:43;20.10;99.90
28552;DHT22;15752;49.560;8.708;2023-05-10T13:49:12;20.20;99.90
28552;DHT22;15752;49.560;8.708;2023-05-10T13:51:42;20.20;99.90
28552;DHT22;15752;49.560;8.708;2023-05-10T13:54:10;20.20;99.90
28552;DHT22;15752;49.560;8.708;2023-05-10T13:56:40;20.20;99.90
28552;DHT22;15752;49.560;8.708;2023-05-10T13:59:12;20.30;99.90
28552;DHT22;15752;49.560;8.708;2023-05-10T14:01:41;20.30;99.90
28552;DHT22;15752;49.560;8.708;2023-05-10T14:04:11;20.30;99.90
28552;DHT22;15752;49.560;8.708;2023-05-10T14:06:39;20.30;99.90
28552;DHT22;15752;49.560;8.708;2023-05-10T14:09:08;20.30;99.90
28552;DHT22;15752;49.560;8.708;2023-05-10T14:11:36;20.30;99.90
28552;DHT22;15752;49.560;8.708;2023-05-10T14:14:08;20.30;99.90
28552;DHT22;15752;49.560;8.708;2023-05-10T14:16:40;20.30;99.90
28552;DHT22;15752;49.560;8.708;2023-05-10T14:19:10;20.30;99.90
28552;DHT22;15752;49.560;8.708;2023-05-10T14:21:38;20.30;99.90
28552;DHT22;15752;49.560;8.708;2023-05-10T14:24:07;20.40;99.90
28552;DHT22;15752;49.560;8.708;2023-05-10T14:26:37;20.40;99.90
28552;DHT22;15752;49.560;8.708;2023-05-10T14:29:05;20.40;99.90
28552;DHT22;15752;49.560;8.708;2023-05-10T14:31:38;20.40;99.80
28552;DHT22;15752;49.560;8.708;2023-05-10T14:34:08;20.40;99.30
28552;DHT22;15752;49.560;8.708;2023-05-10T14:36:36;20.40;99.60
28552;DHT22;15752;49.560;8.708;2023-05-10T14:39:04;20.40;99.60
28552;DHT22;15752;49.560;8.708;2023-05-10T14:41:33;20.40;99.80
28552;DHT22;15752;49.560;8.708;2023-05-10T14:44:02;20.40;99.70
28552;DHT22;15752;49.560;8.708;2023-05-10T14:46:30;20.40;99.40
28552;DHT22;15752;49.560;8.708;2023-05-10T14:49:02;20.40;99.10
28552;DHT22;15752;49.560;8.708;2023-05-10T14:51:31;20.50;99.20
28552;DHT22;15752;49.560;8.708;2023-05-10T14:54:03;20.50;99.40
28552;DHT22;15752;49.560;8.708;2023-05-10T14:56:34;20.50;98.90
28552;DHT22;15752;49.560;8.708;2023-05-10T14:59:04;20.50;98.80
28552;DHT22;15752;49.560;8.708;2023-05-10T15:01:32;20.40;99.40
28552;DHT22;15752;49.560;8.708;2023-05-10T15:04:05;20.50;99.20
28552;DHT22;15752;49.560;8.708;2023-05-10T15:06:35;20.50;98.40
28552;DHT22;15752;49.560;8.708;2023-05-10T15:09:03;20.50;98.90
28552;DHT22;15752;49.560;8.708;2023-05-10T15:11:32;20.40;98.80
28552;DHT22;15752;49.560;8.708;2023-05-10T15:14:01;20.40;98.90
28552;DHT22;15752;49.560;8.708;2023-05-10T15:16:29;20.40;98.40
28552;DHT22;15752;49.560;8.708;2023-05-10T15:19:01;20.40;98.40
28552;DHT22;15752;49.560;8.708;2023-05-10T15:21:31;20.40;98.00
28552;DHT22;15752;49.560;8.708;2023-05-10T15:24:05;20.40;97.60
28552;DHT22;15752;49.560;8.708;2023-05-10T15:26:34;20.40;98.20
28552;DHT22;15752;49.560;8.708;2023-05-10T15:29:02;20.40;98.20
28552;DHT22;15752;49.560;8.708;2023-05-10T15:31:31;20.40;98.50
28552;DHT22;15752;49.560;8.708;2023-05-10T15:34:02;20.40;98.20
28552;DHT22;15752;49.560;8.708;2023-05-10T15:36:31;20.40;98.30
28552;DHT22;15752;49.560;8.708;2023-05-10T15:39:00;20.40;97.90
28552;DHT22;15752;49.560;8.708;2023-05-10T15:41:29;20.40;98.00
28552;DHT22;15752;49.560;8.708;2023-05-10T15:43:58;20.30;98.10
28552;DHT22;15752;49.560;8.708;2023-05-10T15:46:27;20.30;98.20
28552;DHT22;15752;49.560;8.708;2023-05-10T15:48:57;20.30;98.20
28552;DHT22;15752;49.560;8.708;2023-05-10T15:51:26;20.30;98.40